sensor_id;sensor_type;location;lat;lon;timestamp;temperature;humidity
11784;DHT22;5949;40.386;18.150;2022-07-24T00:01:19;29.60;99.90
11784;DHT22;5949;40.386;18.150;2022-07-24T00:03:47;29.50;99.90
11784;DHT22;5949;40.386;18.150;2022-07-24T00:06:17;29.50;99.90
11784;DHT22;5949;40.386;18.150;2022-07-24T00:08:44;29.20;99.90
11784;DHT22;5949;40.386;18.150;2022-07-24T00:11:12;29.20;99.90
11784;DHT22;5949;40.386;18.150;2022-07-24T00:13:40;29.10;99.90
11784;DHT22;5949;40.386;18.150;2022-07-24T00:16:07;28.90;99.90
11784;DHT22;5949;40.386;18.150;2022-07-24T00:18:35;29.10;99.90
11784;DHT22;5949;40.386;18.150;2022-07-24T00:21:03;28.90;99.90
11784;DHT22;5949;40.386;18.150;2022-07-24T00:23:32;28.80;99.90
11784;DHT22;5949;40.386;18.150;2022-07-24T00:26:00;28.90;99.90
11784;DHT22;5949;40.386;18.150;2022-07-24T00:28:27;29.10;99.90
11784;DHT22;5949;40.386;18.150;2022-07-24T00:30:55;29.20;99.90
11784;DHT22;5949;40.386;18.150;2022-07-24T00:33:23;29.10;99.90
11784;DHT22;5949;40.386;18.150;2022-07-24T00:35:50;29.10;99.90
11784;DHT22;5949;40.386;18.150;2022-07-24T00:38:18;29.00;99.90
11784;DHT22;5949;40.386;18.150;2022-07-24T00:40:47;29.10;99.90
11784;DHT22;5949;40.386;18.150;2022-07-24T00:43:15;29.10;99.90
11784;DHT22;5949;40.386;18.150;2022-07-24T00:45:43;29.00;99.90
11784;DHT22;5949;40.386;18.150;2022-07-24T00:48:11;29.00;99.90
11784;DHT22;5949;40.386;18.150;2022-07-24T00:50:39;29.00;99.90
11784;DHT22;5949;40.386;18.150;2022-07-24T00:53:07;28.90;99.90
11784;DHT22;5949;40.386;18.150;2022-07-24T00:55:35;28.90;99.90
11784;DHT22;5949;40.386;18.150;2022-07-24T00:58:05;29.00;99.90
11784;DHT22;5949;40.386;18.150;2022-07-24T01:00:33;28.80;99.90
11784;DHT22;5949;40.386;18.150;2022-07-24T01:03:01;28.80;99.90
11784;DHT22;5949;40.386;18.150;2022-07-24T01:05:29;29.00;99.90
11784;DHT22;5949;40.386;18.150;2022-07-24T01:07:57;28.80;99.90
11784;DHT22;5949;40.386;18.150;2022-07-24T01:10:24;28.90;99.90
11784;DHT22;5949;40.386;18.150;2022-07-24T01:12:52;29.00;99.90
11784;DHT22;5949;40.386;18.150;2022-07-24T01:15:21;29.00;99.90
11784;DHT22;5949;40.386;18.150;2022-07-24T01:17:49;29.00;99.90
11784;DHT22;5949;40.386;18.150;2022-07-24T01:20:17;29.00;99.90
11784;DHT22;5949;40.386;18.150;2022-07-24T01:22:46;28.90;99.90
11784;DHT22;5949;40.386;18.150;2022-07-24T01:25:13;29.00;99.90
11784;DHT22;5949;40.386;18.150;2022-07-24T01:27:41;29.00;99.90
11784;DHT22;5949;40.386;18.150;2022-07-24T01:30:10;29.00;99.90
11784;DHT22;5949;40.386;18.150;2022-07-24T01:32:38;29.00;99.90
11784;DHT22;5949;40.386;18.150;2022-07-24T01:35:06;29.00;99.90
11784;DHT22;5949;40.386;18.150;2022-07-24T01:37:34;28.90;99.90
11784;DHT22;5949;40.386;18.150;2022-07-24T01:40:04;28.90;99.90
11784;DHT22;5949;40.386;18.150;2022-07-24T01:42:32;29.00;99.90
11784;DHT22;5949;40.386;18.150;2022-07-24T01:45:00;28.80;99.90
11784;DHT22;5949;40.386;18.150;2022-07-24T01:47:27;28.70;99.90
11784;DHT22;5949;40.386;18.150;2022-07-24T01:49:55;28.70;99.90
11784;DHT22;5949;40.386;18.150;2022-07-24T01:52:23;28.50;99.90
11784;DHT22;5949;40.386;18.150;2022-07-24T01:54:51;28.50;99.90
11784;DHT22;5949;40.386;18.150;2022-07-24T01:57:20;28.40;99.90
11784;DHT22;5949;40.386;18.150;2022-07-24T01:59:48;28.40;99.90
11784;DHT22;5949;40.386;18.150;2022-07-24T02:02:15;28.50;99.90
11784;DHT22;5949;40.386;18.150;2022-07-24T02:04:43;28.50;99.90
11784;DHT22;5949;40.386;18.150;2022-07-24T02:07:11;28.50;99.90
11784;DHT22;5949;40.386;18.150;2022-07-24T02:09:38;28.30;99.90
11784;DHT22;5949;40.386;18.150;2022-07-24T02:12:06;28.30;99.90
11784;DHT22;5949;40.386;18.150;2022-07-24T02:14:36;28.20;99.90
11784;DHT22;5949;40.386;18.150;2022-07-24T02:17:04;28.20;99.90
11784;DHT22;5949;40.386;18.150;2022-07-24T02:19:31;28.10;99.90
11784;DHT22;5949;40.386;18.150;2022-07-24T02:21:59;28.20;99.90
11784;DHT22;5949;40.386;18.150;2022-07-24T02:24:26;28.20;99.90
11784;DHT22;5949;40.386;18.150;2022-07-24T02:26:54;28.20;99.90
11784;DHT22;5949;40.386;18.150;2022-07-24T02:29:22;28.10;99.90
11784;DHT22;5949;40.386;18.150;2022-07-24T02:31:51;28.20;99.90
11784;DHT22;5949;40.386;18.150;2022-07-24T02:34:18;28.20;99.90
11784;DHT22;5949;40.386;18.150;2022-07-24T02:36:46;28.20;99.90
11784;DHT22;5949;40.386;18.150;2022-07-24T02:39:13;28.20;99.90
11784;DHT22;5949;40.386;18.150;2022-07-24T02:41:41;28.20;99.90
11784;DHT22;5949;40.386;18.150;2022-07-24T02:44:08;28.20;99.90
11784;DHT22;5949;40.386;18.150;2022-07-24T02:46:36;28.10;99.90
11784;DHT22;5949;40.386;18.150;2022-07-24T02:49:05;28.10;99.90
11784;DHT22;5949;40.386;18.150;2022-07-24T02:51:33;27.90;99.90
11784;DHT22;5949;40.386;18.150;2022-07-24T02:54:00;28.00;99.90
11784;DHT22;5949;40.386;18.150;2022-07-24T02:56:28;28.10;99.90
11784;DHT22;5949;40.386;18.150;2022-07-24T02:58:56;28.10;99.90
11784;DHT22;5949;40.386;18.150;2022-07-24T03:01:23;28.10;99.90
11784;DHT22;5949;40.386;18.150;2022-07-24T03:03:51;28.10;99.90
11784;DHT22;5949;40.386;18.150;2022-07-24T03:06:20;28.10;99.90
11784;DHT22;5949;40.386;18.150;2022-07-24T03:08:48;27.90;99.90
11784;DHT22;5949;40.386;18.150;2022-07-24T03:11:16;27.90;99.90
11784;DHT22;5949;40.386;18.150;2022-07-24T03:13:44;28.00;99.90
11784;DHT22;5949;40.386;18.150;2022-07-24T03:16:11;28.00;99.90
11784;DHT22;5949;40.386;18.150;2022-07-24T03:18:39;28.00;99.90
11784;DHT22;5949;40.386;18.150;2022-07-24T03:21:07;28.00;99.90
11784;DHT22;5949;40.386;18.150;2022-07-24T03:23:36;27.90;99.90
11784;DHT22;5949;40.386;18.150;2022-07-24T03:26:04;27.80;99.90
11784;DHT22;5949;40.386;18.150;2022-07-24T03:28:32;27.80;99.90
11784;DHT22;5949;40.386;18.150;2022-07-24T03:30:59;27.90;99.90
11784;DHT22;5949;40.386;18.150;2022-07-24T03:33:27;27.90;99.90
11784;DHT22;5949;40.386;18.150;2022-07-24T03:35:56;27.90;99.90
11784;DHT22;5949;40.386;18.150;2022-07-24T03:38:24;27.80;99.90
11784;DHT22;5949;40.386;18.150;2022-07-24T03:40:53;27.90;99.90
11784;DHT22;5949;40.386;18.150;2022-07-24T03:43:21;27.70;99.90
11784;DHT22;5949;40.386;18.150;2022-07-24T03:45:48;27.70;99.90
11784;DHT22;5949;40.386;18.150;2022-07-24T03:48:16;27.60;99.90
11784;DHT22;5949;40.386;18.150;2022-07-24T03:50:44;27.20;99.90
11784;DHT22;5949;40.386;18.150;2022-07-24T03:53:11;27.20;99.90
11784;DHT22;5949;40.386;18.150;2022-07-24T03:55:39;27.40;99.90
11784;DHT22;5949;40.386;18.150;2022-07-24T03:58:08;27.30;99.90
11784;DHT22;5949;40.386;18.150;2022-07-24T04:00:36;27.20;99.90
11784;DHT22;5949;40.386;18.150;2022-07-24T04:03:03;27.30;99.90
11784;DHT22;5949;40.386;18.150;2022-07-24T04:05:31;27.40;99.90
11784;DHT22;5949;40.386;18.150;2022-07-24T04:07:58;27.20;99.90
11784;DHT22;5949;40.386;18.150;2022-07-24T04:10:26;27.30;99.90
11784;DHT22;5949;40.386;18.150;2022-07-24T04:12:54;27.40;99.90
11784;DHT22;5949;40.386;18.150;2022-07-24T04:15:23;27.40;99.90
11784;DHT22;5949;40.386;18.150;2022-07-24T04:17:50;27.40;99.90
11784;DHT22;5949;40.386;18.150;2022-07-24T04:20:18;27.40;99.90
11784;DHT22;5949;40.386;18.150;2022-07-24T04:22:45;27.40;99.90
11784;DHT22;5949;40.386;18.150;2022-07-24T04:25:13;27.60;99.90
11784;DHT22;5949;40.386;18.150;2022-07-24T04:27:41;27.50;99.90
11784;DHT22;5949;40.386;18.150;2022-07-24T04:30:10;27.80;99.90
11784;DHT22;5949;40.386;18.150;2022-07-24T04:32:39;28.00;99.90
11784;DHT22;5949;40.386;18.150;2022-07-24T04:35:07;28.10;99.90
11784;DHT22;5949;40.386;18.150;2022-07-24T04:37:35;28.10;99.90
11784;DHT22;5949;40.386;18.150;2022-07-24T04:40:03;28.00;99.90
11784;DHT22;5949;40.386;18.150;2022-07-24T04:42:30;27.90;99.90
11784;DHT22;5949;40.386;18.150;2022-07-24T04:44:58;28.00;99.90
11784;DHT22;5949;40.386;18.150;2022-07-24T04:47:25;27.80;99.90
11784;DHT22;5949;40.386;18.150;2022-07-24T04:49:54;27.70;99.90
11784;DHT22;5949;40.386;18.150;2022-07-24T04:52:22;27.90;99.90
11784;DHT22;5949;40.386;18.150;2022-07-24T04:54:49;28.20;99.90
11784;DHT22;5949;40.386;18.150;2022-07-24T04:57:17;28.20;99.90
11784;DHT22;5949;40.386;18.150;2022-07-24T04:59:44;28.30;99.90
11784;DHT22;5949;40.386;18.150;2022-07-24T05:02:12;28.30;99.90
11784;DHT22;5949;40.386;18.150;2022-07-24T05:04:39;28.30;99.90
11784;DHT22;5949;40.386;18.150;2022-07-24T05:07:08;28.50;99.90
11784;DHT22;5949;40.386;18.150;2022-07-24T05:09:36;28.80;99.90
11784;DHT22;5949;40.386;18.150;2022-07-24T05:12:04;28.60;99.90
11784;DHT22;5949;40.386;18.150;2022-07-24T05:14:31;28.40;99.90
11784;DHT22;5949;40.386;18.150;2022-07-24T05:16:59;28.60;99.90
11784;DHT22;5949;40.386;18.150;2022-07-24T05:19:26;28.80;99.90
11784;DHT22;5949;40.386;18.150;2022-07-24T05:21:54;29.30;99.90
11784;DHT22;5949;40.386;18.150;2022-07-24T05:24:23;29.40;99.90
11784;DHT22;5949;40.386;18.150;2022-07-24T05:26:53;29.80;99.90
11784;DHT22;5949;40.386;18.150;2022-07-24T05:29:21;30.00;99.90
11784;DHT22;5949;40.386;18.150;2022-07-24T05:31:48;30.10;99.90
11784;DHT22;5949;40.386;18.150;2022-07-24T05:34:17;30.30;99.90
11784;DHT22;5949;40.386;18.150;2022-07-24T05:36:45;30.60;99.90
11784;DHT22;5949;40.386;18.150;2022-07-24T05:39:12;31.00;99.90
11784;DHT22;5949;40.386;18.150;2022-07-24T05:41:42;31.40;99.90
11784;DHT22;5949;40.386;18.150;2022-07-24T05:44:09;31.80;99.90
11784;DHT22;5949;40.386;18.150;2022-07-24T05:46:37;32.00;99.90
11784;DHT22;5949;40.386;18.150;2022-07-24T05:49:04;31.70;99.90
11784;DHT22;5949;40.386;18.150;2022-07-24T05:51:32;32.20;99.90
11784;DHT22;5949;40.386;18.150;2022-07-24T05:53:59;32.50;99.90
11784;DHT22;5949;40.386;18.150;2022-07-24T05:56:27;33.00;99.90
11784;DHT22;5949;40.386;18.150;2022-07-24T05:58:55;33.30;99.90
11784;DHT22;5949;40.386;18.150;2022-07-24T06:01:23;33.70;99.40
11784;DHT22;5949;40.386;18.150;2022-07-24T06:03:50;34.20;98.60
11784;DHT22;5949;40.386;18.150;2022-07-24T06:06:18;34.40;97.30
11784;DHT22;5949;40.386;18.150;2022-07-24T06:08:46;34.40;97.00
11784;DHT22;5949;40.386;18.150;2022-07-24T06:11:13;34.50;96.00
11784;DHT22;5949;40.386;18.150;2022-07-24T06:13:41;34.60;94.60
11784;DHT22;5949;40.386;18.150;2022-07-24T06:16:10;34.90;93.80
11784;DHT22;5949;40.386;18.150;2022-07-24T06:18:37;34.90;92.90
11784;DHT22;5949;40.386;18.150;2022-07-24T06:21:05;34.70;91.70
11784;DHT22;5949;40.386;18.150;2022-07-24T06:23:33;34.70;92.10
11784;DHT22;5949;40.386;18.150;2022-07-24T06:26:00;34.50;91.80
11784;DHT22;5949;40.386;18.150;2022-07-24T06:28:28;35.20;91.30
11784;DHT22;5949;40.386;18.150;2022-07-24T06:30:55;34.90;90.90
11784;DHT22;5949;40.386;18.150;2022-07-24T06:33:24;34.70;90.90
11784;DHT22;5949;40.386;18.150;2022-07-24T06:35:52;34.90;90.80
11784;DHT22;5949;40.386;18.150;2022-07-24T06:38:19;34.80;90.30
11784;DHT22;5949;40.386;18.150;2022-07-24T06:40:47;34.90;90.10
11784;DHT22;5949;40.386;18.150;2022-07-24T06:43:14;35.10;88.90
11784;DHT22;5949;40.386;18.150;2022-07-24T06:45:42;35.20;88.60
11784;DHT22;5949;40.386;18.150;2022-07-24T06:48:10;34.80;87.80
11784;DHT22;5949;40.386;18.150;2022-07-24T06:50:39;35.00;88.40
11784;DHT22;5949;40.386;18.150;2022-07-24T06:53:07;35.70;87.00
11784;DHT22;5949;40.386;18.150;2022-07-24T06:55:34;35.80;85.30
11784;DHT22;5949;40.386;18.150;2022-07-24T06:58:02;35.40;83.50
11784;DHT22;5949;40.386;18.150;2022-07-24T07:00:30;35.50;83.30
11784;DHT22;5949;40.386;18.150;2022-07-24T07:02:57;35.80;81.90
11784;DHT22;5949;40.386;18.150;2022-07-24T07:05:25;35.80;81.30
11784;DHT22;5949;40.386;18.150;2022-07-24T07:07:54;35.80;80.60
11784;DHT22;5949;40.386;18.150;2022-07-24T07:10:21;36.00;77.70
11784;DHT22;5949;40.386;18.150;2022-07-24T07:12:49;36.30;77.20
11784;DHT22;5949;40.386;18.150;2022-07-24T07:15:16;36.50;76.20
11784;DHT22;5949;40.386;18.150;2022-07-24T07:17:44;36.50;73.60
11784;DHT22;5949;40.386;18.150;2022-07-24T07:20:12;36.10;71.70
11784;DHT22;5949;40.386;18.150;2022-07-24T07:22:41;36.20;70.10
11784;DHT22;5949;40.386;18.150;2022-07-24T07:25:11;36.20;69.40
11784;DHT22;5949;40.386;18.150;2022-07-24T07:27:39;35.80;68.50
11784;DHT22;5949;40.386;18.150;2022-07-24T07:30:07;36.00;67.90
11784;DHT22;5949;40.386;18.150;2022-07-24T07:32:35;35.60;66.00
11784;DHT22;5949;40.386;18.150;2022-07-24T07:35:03;36.00;66.40
11784;DHT22;5949;40.386;18.150;2022-07-24T07:37:31;36.30;64.80
11784;DHT22;5949;40.386;18.150;2022-07-24T07:39:59;36.70;62.80
11784;DHT22;5949;40.386;18.150;2022-07-24T07:42:28;36.50;62.30
11784;DHT22;5949;40.386;18.150;2022-07-24T07:44:55;36.00;60.60
11784;DHT22;5949;40.386;18.150;2022-07-24T07:47:23;36.40;60.80
11784;DHT22;5949;40.386;18.150;2022-07-24T07:49:50;36.20;61.00
11784;DHT22;5949;40.386;18.150;2022-07-24T07:52:18;36.90;60.50
11784;DHT22;5949;40.386;18.150;2022-07-24T07:54:46;36.80;60.50
11784;DHT22;5949;40.386;18.150;2022-07-24T07:57:13;36.60;59.90
11784;DHT22;5949;40.386;18.150;2022-07-24T07:59:42;36.50;59.50
11784;DHT22;5949;40.386;18.150;2022-07-24T08:02:10;36.30;58.40
11784;DHT22;5949;40.386;18.150;2022-07-24T08:04:38;36.60;57.30
11784;DHT22;5949;40.386;18.150;2022-07-24T08:07:05;37.20;56.10
11784;DHT22;5949;40.386;18.150;2022-07-24T08:09:32;37.10;55.00
11784;DHT22;5949;40.386;18.150;2022-07-24T08:12:00;36.70;55.40
11784;DHT22;5949;40.386;18.150;2022-07-24T08:14:28;36.90;55.30
11784;DHT22;5949;40.386;18.150;2022-07-24T08:16:57;36.80;54.80
11784;DHT22;5949;40.386;18.150;2022-07-24T08:19:24;36.30;54.30
11784;DHT22;5949;40.386;18.150;2022-07-24T08:21:52;37.10;54.70
11784;DHT22;5949;40.386;18.150;2022-07-24T08:24:19;37.50;54.30
11784;DHT22;5949;40.386;18.150;2022-07-24T08:26:47;37.40;54.00
11784;DHT22;5949;40.386;18.150;2022-07-24T08:29:16;37.50;54.30
11784;DHT22;5949;40.386;18.150;2022-07-24T08:31:43;37.20;54.50
11784;DHT22;5949;40.386;18.150;2022-07-24T08:34:12;37.40;54.20
11784;DHT22;5949;40.386;18.150;2022-07-24T08:36:40;37.30;53.40
11784;DHT22;5949;40.386;18.150;2022-07-24T08:39:10;37.00;52.90
11784;DHT22;5949;40.386;18.150;2022-07-24T08:41:38;37.40;52.80
11784;DHT22;5949;40.386;18.150;2022-07-24T08:44:06;37.60;52.00
11784;DHT22;5949;40.386;18.150;2022-07-24T08:46:37;37.60;51.30
11784;DHT22;5949;40.386;18.150;2022-07-24T08:49:07;37.20;51.20
11784;DHT22;5949;40.386;18.150;2022-07-24T08:51:38;37.50;51.30
11784;DHT22;5949;40.386;18.150;2022-07-24T08:54:05;37.40;51.50
11784;DHT22;5949;40.386;18.150;2022-07-24T08:56:33;37.60;51.60
11784;DHT22;5949;40.386;18.150;2022-07-24T08:59:03;37.70;51.50
11784;DHT22;5949;40.386;18.150;2022-07-24T09:01:30;37.70;50.80
11784;DHT22;5949;40.386;18.150;2022-07-24T09:03:58;37.50;51.30
11784;DHT22;5949;40.386;18.150;2022-07-24T09:06:25;37.60;52.80
11784;DHT22;5949;40.386;18.150;2022-07-24T09:09:02;37.10;52.90
11784;DHT22;5949;40.386;18.150;2022-07-24T09:11:32;37.30;53.60
11784;DHT22;5949;40.386;18.150;2022-07-24T09:14:03;37.60;53.40
11784;DHT22;5949;40.386;18.150;2022-07-24T09:16:48;37.80;53.70
11784;DHT22;5949;40.386;18.150;2022-07-24T09:19:15;37.50;54.30
11784;DHT22;5949;40.386;18.150;2022-07-24T09:21:43;37.50;55.10
11784;DHT22;5949;40.386;18.150;2022-07-24T09:24:18;37.30;55.80
11784;DHT22;5949;40.386;18.150;2022-07-24T09:26:47;37.10;58.50
11784;DHT22;5949;40.386;18.150;2022-07-24T09:29:16;37.00;59.90
11784;DHT22;5949;40.386;18.150;2022-07-24T09:31:51;36.70;60.50
11784;DHT22;5949;40.386;18.150;2022-07-24T09:34:19;36.80;61.80
11784;DHT22;5949;40.386;18.150;2022-07-24T09:36:58;37.00;62.20
11784;DHT22;5949;40.386;18.150;2022-07-24T09:39:28;36.80;64.20
11784;DHT22;5949;40.386;18.150;2022-07-24T09:41:58;36.70;65.10
11784;DHT22;5949;40.386;18.150;2022-07-24T09:44:27;36.50;66.90
11784;DHT22;5949;40.386;18.150;2022-07-24T09:46:57;36.40;67.10
11784;DHT22;5949;40.386;18.150;2022-07-24T09:49:26;36.40;67.00
11784;DHT22;5949;40.386;18.150;2022-07-24T09:52:14;36.50;66.40
11784;DHT22;5949;40.386;18.150;2022-07-24T09:54:46;36.60;62.90
11784;DHT22;5949;40.386;18.150;2022-07-24T09:57:16;36.20;62.40
11784;DHT22;5949;40.386;18.150;2022-07-24T09:59:45;36.30;62.50
11784;DHT22;5949;40.386;18.150;2022-07-24T10:02:14;36.70;62.50
11784;DHT22;5949;40.386;18.150;2022-07-24T10:04:43;36.50;59.00
11784;DHT22;5949;40.386;18.150;2022-07-24T10:07:12;36.50;58.60
11784;DHT22;5949;40.386;18.150;2022-07-24T10:09:43;36.30;58.80
11784;DHT22;5949;40.386;18.150;2022-07-24T10:12:12;36.60;59.40
11784;DHT22;5949;40.386;18.150;2022-07-24T10:14:41;36.50;59.00
11784;DHT22;5949;40.386;18.150;2022-07-24T10:17:11;36.40;58.40
11784;DHT22;5949;40.386;18.150;2022-07-24T10:19:41;36.30;57.50
11784;DHT22;5949;40.386;18.150;2022-07-24T10:22:12;36.20;57.00
11784;DHT22;5949;40.386;18.150;2022-07-24T10:24:59;36.10;56.80
11784;DHT22;5949;40.386;18.150;2022-07-24T10:27:31;36.50;56.80
11784;DHT22;5949;40.386;18.150;2022-07-24T10:30:01;36.50;57.20
11784;DHT22;5949;40.386;18.150;2022-07-24T10:32:30;36.70;56.90
11784;DHT22;5949;40.386;18.150;2022-07-24T10:35:10;36.50;56.60
11784;DHT22;5949;40.386;18.150;2022-07-24T10:37:44;36.10;57.60
11784;DHT22;5949;40.386;18.150;2022-07-24T10:40:23;36.20;56.80
11784;DHT22;5949;40.386;18.150;2022-07-24T10:43:11;36.30;57.60
11784;DHT22;5949;40.386;18.150;2022-07-24T10:45:40;36.20;58.20
11784;DHT22;5949;40.386;18.150;2022-07-24T10:48:42;36.10;58.40
11784;DHT22;5949;40.386;18.150;2022-07-24T10:51:11;35.90;59.30
11784;DHT22;5949;40.386;18.150;2022-07-24T10:53:48;36.20;57.40
11784;DHT22;5949;40.386;18.150;2022-07-24T10:56:21;36.20;56.70
11784;DHT22;5949;40.386;18.150;2022-07-24T10:58:58;36.10;56.60
11784;DHT22;5949;40.386;18.150;2022-07-24T11:01:31;35.90;56.80
11784;DHT22;5949;40.386;18.150;2022-07-24T11:04:00;36.00;57.40
11784;DHT22;5949;40.386;18.150;2022-07-24T11:06:42;36.20;56.60
11784;DHT22;5949;40.386;18.150;2022-07-24T11:09:10;35.70;57.40
11784;DHT22;5949;40.386;18.150;2022-07-24T11:12:02;35.90;56.20
11784;DHT22;5949;40.386;18.150;2022-07-24T11:14:46;36.00;57.10
11784;DHT22;5949;40.386;18.150;2022-07-24T11:17:36;35.70;57.90
11784;DHT22;5949;40.386;18.150;2022-07-24T11:20:06;35.90;57.80
11784;DHT22;5949;40.386;18.150;2022-07-24T11:22:40;36.10;56.80
11784;DHT22;5949;40.386;18.150;2022-07-24T11:25:09;36.10;56.60
11784;DHT22;5949;40.386;18.150;2022-07-24T11:27:44;36.30;56.20
11784;DHT22;5949;40.386;18.150;2022-07-24T11:30:13;36.10;55.10
11784;DHT22;5949;40.386;18.150;2022-07-24T11:32:41;36.00;55.70
11784;DHT22;5949;40.386;18.150;2022-07-24T11:35:09;35.80;55.80
11784;DHT22;5949;40.386;18.150;2022-07-24T11:37:37;35.60;56.00
11784;DHT22;5949;40.386;18.150;2022-07-24T11:40:07;35.80;55.10
11784;DHT22;5949;40.386;18.150;2022-07-24T11:42:35;35.70;55.40
11784;DHT22;5949;40.386;18.150;2022-07-24T11:45:05;35.80;55.20
11784;DHT22;5949;40.386;18.150;2022-07-24T11:47:33;36.10;54.70
11784;DHT22;5949;40.386;18.150;2022-07-24T11:50:02;35.60;51.50
11784;DHT22;5949;40.386;18.150;2022-07-24T11:52:33;36.00;51.70
11784;DHT22;5949;40.386;18.150;2022-07-24T11:55:02;35.70;49.90
11784;DHT22;5949;40.386;18.150;2022-07-24T11:57:31;35.80;50.20
11784;DHT22;5949;40.386;18.150;2022-07-24T11:59:59;35.90;50.30
11784;DHT22;5949;40.386;18.150;2022-07-24T12:02:28;36.10;49.80
11784;DHT22;5949;40.386;18.150;2022-07-24T12:04:56;36.10;50.30
11784;DHT22;5949;40.386;18.150;2022-07-24T12:07:25;35.90;47.80
11784;DHT22;5949;40.386;18.150;2022-07-24T12:09:55;35.90;48.90
11784;DHT22;5949;40.386;18.150;2022-07-24T12:12:24;35.80;48.90
11784;DHT22;5949;40.386;18.150;2022-07-24T12:14:54;35.60;49.20
11784;DHT22;5949;40.386;18.150;2022-07-24T12:17:28;35.40;50.00
11784;DHT22;5949;40.386;18.150;2022-07-24T12:19:57;35.80;47.90
11784;DHT22;5949;40.386;18.150;2022-07-24T12:22:25;35.90;49.50
11784;DHT22;5949;40.386;18.150;2022-07-24T12:24:54;35.80;48.10
11784;DHT22;5949;40.386;18.150;2022-07-24T12:27:36;35.70;50.90
11784;DHT22;5949;40.386;18.150;2022-07-24T12:30:20;35.70;49.70
11784;DHT22;5949;40.386;18.150;2022-07-24T12:32:57;35.80;50.30
11784;DHT22;5949;40.386;18.150;2022-07-24T12:35:25;35.80;50.70
11784;DHT22;5949;40.386;18.150;2022-07-24T12:37:53;35.60;50.90
11784;DHT22;5949;40.386;18.150;2022-07-24T12:40:25;35.40;50.10
11784;DHT22;5949;40.386;18.150;2022-07-24T12:43:01;35.50;50.60
11784;DHT22;5949;40.386;18.150;2022-07-24T12:45:29;35.10;50.80
11784;DHT22;5949;40.386;18.150;2022-07-24T12:48:25;35.10;50.40
11784;DHT22;5949;40.386;18.150;2022-07-24T12:51:01;35.30;52.10
11784;DHT22;5949;40.386;18.150;2022-07-24T12:53:30;35.20;51.20
11784;DHT22;5949;40.386;18.150;2022-07-24T12:56:07;35.30;51.80
11784;DHT22;5949;40.386;18.150;2022-07-24T12:58:58;35.40;52.20
11784;DHT22;5949;40.386;18.150;2022-07-24T13:01:28;35.50;51.50
11784;DHT22;5949;40.386;18.150;2022-07-24T13:04:11;35.60;50.50
11784;DHT22;5949;40.386;18.150;2022-07-24T13:06:40;35.50;50.30
11784;DHT22;5949;40.386;18.150;2022-07-24T13:09:10;35.50;50.10
11784;DHT22;5949;40.386;18.150;2022-07-24T13:11:38;35.40;49.10
11784;DHT22;5949;40.386;18.150;2022-07-24T13:14:07;35.70;50.00
11784;DHT22;5949;40.386;18.150;2022-07-24T13:16:37;35.50;51.60
11784;DHT22;5949;40.386;18.150;2022-07-24T13:19:06;35.40;52.20
11784;DHT22;5949;40.386;18.150;2022-07-24T13:21:37;35.20;52.10
11784;DHT22;5949;40.386;18.150;2022-07-24T13:24:05;35.40;52.30
11784;DHT22;5949;40.386;18.150;2022-07-24T13:26:34;35.60;50.50
11784;DHT22;5949;40.386;18.150;2022-07-24T13:29:02;35.50;51.30
11784;DHT22;5949;40.386;18.150;2022-07-24T13:31:30;35.40;52.00
11784;DHT22;5949;40.386;18.150;2022-07-24T13:33:57;35.50;52.80
11784;DHT22;5949;40.386;18.150;2022-07-24T13:36:25;35.60;50.80
11784;DHT22;5949;40.386;18.150;2022-07-24T13:38:54;35.80;49.90
11784;DHT22;5949;40.386;18.150;2022-07-24T13:41:22;35.80;51.40
11784;DHT22;5949;40.386;18.150;2022-07-24T13:43:49;35.70;51.20
11784;DHT22;5949;40.386;18.150;2022-07-24T13:46:17;36.00;50.30
11784;DHT22;5949;40.386;18.150;2022-07-24T13:48:46;35.80;46.30
11784;DHT22;5949;40.386;18.150;2022-07-24T13:51:13;35.60;46.60
11784;DHT22;5949;40.386;18.150;2022-07-24T13:53:41;35.60;47.70
11784;DHT22;5949;40.386;18.150;2022-07-24T13:56:11;35.60;48.60
11784;DHT22;5949;40.386;18.150;2022-07-24T13:58:39;35.50;47.70
11784;DHT22;5949;40.386;18.150;2022-07-24T14:01:08;35.40;47.50
11784;DHT22;5949;40.386;18.150;2022-07-24T14:03:35;35.50;47.70
11784;DHT22;5949;40.386;18.150;2022-07-24T14:06:05;35.80;46.50
11784;DHT22;5949;40.386;18.150;2022-07-24T14:08:33;35.60;45.50
11784;DHT22;5949;40.386;18.150;2022-07-24T14:11:00;35.80;46.30
11784;DHT22;5949;40.386;18.150;2022-07-24T14:13:30;35.90;46.70
11784;DHT22;5949;40.386;18.150;2022-07-24T14:15:57;35.90;44.60
11784;DHT22;5949;40.386;18.150;2022-07-24T14:18:25;35.60;46.10
11784;DHT22;5949;40.386;18.150;2022-07-24T14:20:52;35.60;45.40
11784;DHT22;5949;40.386;18.150;2022-07-24T14:23:20;35.80;45.10
11784;DHT22;5949;40.386;18.150;2022-07-24T14:25:47;35.70;44.80
11784;DHT22;5949;40.386;18.150;2022-07-24T14:28:15;35.80;44.00
11784;DHT22;5949;40.386;18.150;2022-07-24T14:30:44;35.80;43.70
11784;DHT22;5949;40.386;18.150;2022-07-24T14:33:12;35.90;43.60
11784;DHT22;5949;40.386;18.150;2022-07-24T14:35:40;35.70;43.10
11784;DHT22;5949;40.386;18.150;2022-07-24T14:38:07;35.90;44.70
11784;DHT22;5949;40.386;18.150;2022-07-24T14:40:35;35.60;44.10
11784;DHT22;5949;40.386;18.150;2022-07-24T14:43:02;35.60;44.30
11784;DHT22;5949;40.386;18.150;2022-07-24T14:45:30;35.40;44.10
11784;DHT22;5949;40.386;18.150;2022-07-24T14:47:59;35.30;43.70
11784;DHT22;5949;40.386;18.150;2022-07-24T14:50:27;35.40;43.50
11784;DHT22;5949;40.386;18.150;2022-07-24T14:52:54;35.50;43.00
11784;DHT22;5949;40.386;18.150;2022-07-24T14:55:22;35.30;42.10
11784;DHT22;5949;40.386;18.150;2022-07-24T14:57:49;35.60;42.20
11784;DHT22;5949;40.386;18.150;2022-07-24T15:00:17;35.60;41.90
11784;DHT22;5949;40.386;18.150;2022-07-24T15:02:44;35.60;41.60
11784;DHT22;5949;40.386;18.150;2022-07-24T15:05:13;35.60;40.90
11784;DHT22;5949;40.386;18.150;2022-07-24T15:07:41;35.70;41.70
11784;DHT22;5949;40.386;18.150;2022-07-24T15:10:09;35.70;41.50
11784;DHT22;5949;40.386;18.150;2022-07-24T15:12:36;35.50;41.80
11784;DHT22;5949;40.386;18.150;2022-07-24T15:15:06;35.40;41.80
11784;DHT22;5949;40.386;18.150;2022-07-24T15:17:34;35.60;42.50
11784;DHT22;5949;40.386;18.150;2022-07-24T15:20:02;35.50;42.60
11784;DHT22;5949;40.386;18.150;2022-07-24T15:22:31;35.30;42.50
11784;DHT22;5949;40.386;18.150;2022-07-24T15:24:59;35.20;42.70
11784;DHT22;5949;40.386;18.150;2022-07-24T15:27:27;35.30;43.70
11784;DHT22;5949;40.386;18.150;2022-07-24T15:29:54;35.30;43.70
11784;DHT22;5949;40.386;18.150;2022-07-24T15:32:22;35.30;43.40
11784;DHT22;5949;40.386;18.150;2022-07-24T15:34:49;35.40;43.90
11784;DHT22;5949;40.386;18.150;2022-07-24T15:37:17;35.40;43.20
11784;DHT22;5949;40.386;18.150;2022-07-24T15:39:46;35.20;42.30
11784;DHT22;5949;40.386;18.150;2022-07-24T15:42:13;35.30;42.60